Hannover, Germany

10:41 AM CEST on October 25, 2014 (GMT +0200)
ILOWERSA5 | Change Station
CLOSE
Current Station
Personal Weather Station
Location: Hannover, LOWER SAXONY
Elevation: 194 ft
Nearby Weather Stations

Elev 194 ft 52.40 °N, 9.73 °E | Updated 6 seconds ago

Mostly Cloudy
Mostly Cloudy
52.9 °F
Feels Like 52.9 °F
N
2.0
Wind Variable Wind from West
Gusts 6.0 mph

Today
High -- | Low -- °F
--% Chance of Precip.
Yesterday
High -- | Low -- °F
Precip. -- in
8:04 AM 6:05 PM
New Moon, 2% visible
Pressure 30.06 in
Visibility 6.2 miles
Clouds Mostly Cloudy 1500 ft
Dew Point 50 °F
Humidity 89%
Rainfall 0.02 in
Snow Depth Not available.
UV 1 out of 12
Pollen Not available.
Air Quality Not available.
Flu Activity Not available.
METAR EDDV 250820Z 17006KT 9999 BKN015 11/09 Q1018 BECMG 4000 BKN012

More Conditions Fewer Conditions

Pressure 30.06 in
Visibility 6.2 miles
Clouds Mostly Cloudy 1500 ft
Dew Point 50 °F
Humidity 89%
Rainfall 0.02 in
Snow Depth Not available.
UV 1 out of 12
Pollen Not available.
Air Quality Not available.
Flu Activity Not available.
METAR EDDV 250820Z 17006KT 9999 BKN015 11/09 Q1018 BECMG 4000 BKN012

More Conditions Fewer Conditions

10-Day Weather Forecast

Almanac

Astronomy

Oct. 25, 2014 Rise Set
Actual Time 8:04 AM CEST 6:05 PM CEST
Civil Twilight 7:28 AM CEST 6:40 PM CEST
Nautical Twilight 6:49 AM CEST 7:20 PM CEST
Astronomical Twilight 6:09 AM CEST 7:59 PM CEST
Moon 9:35 AM CEST 7:05 PM CEST
Length of Visible Light 11h 11m
Length of Day
10h 01m
Tomorrow will be 3m 52s shorter.
New Moon, 2% of the Moon is Illuminated
Today
New Moon
Oct 30
First Quarter
Nov 6
Full
Nov 14
Last Quarter
Nov 22
New

Yesterday's Extremes

Country Highs Country Lows

Community

WunderPhotos

Upload Photos

1,764,791 photos uploaded!

Nearby

Snow Depth

Not available.

Earthquake Activity

City Distance Mag. Time & Date
No recent earthquake activity has been reported nearby.
Minimum magnitude displayed is 2.5.

Coastal Water Temperatures

Place Temperature
No Stations Reporting

Nearby Weather Stations